TimeCDT,TemperatureF,Dew PointF,Humidity,Sea Level PressureIn,VisibilityMPH,Wind Direction,Wind SpeedMPH,Gust SpeedMPH,PrecipitationIn,Events,Conditions,WindDirDegrees,DateUTC
12:14 AM,57.2,48.2,72,30.08,10.0,North,6.9,-,N/A,,Overcast,360,2013-07-27 05:14:00
12:34 AM,55.4,48.2,77,30.08,10.0,North,8.1,-,N/A,,Overcast,10,2013-07-27 05:34:00
12:54 AM,55.4,48.2,77,30.08,10.0,North,5.8,-,N/A,,Scattered Clouds,360,2013-07-27 05:54:00
1:14 AM,53.6,48.2,82,30.07,10.0,North,5.8,-,N/A,,Clear,360,2013-07-27 06:14:00
1:34 AM,53.6,48.2,82,30.07,10.0,North,4.6,-,N/A,,Clear,350,2013-07-27 06:34:00
1:54 AM,53.6,48.2,82,30.08,10.0,North,3.5,-,N/A,,Mostly Cloudy,350,2013-07-27 06:54:00
2:14 AM,53.6,48.2,82,30.07,10.0,NW,3.5,-,N/A,,Overcast,320,2013-07-27 07:14:00
2:34 AM,53.6,48.2,82,30.07,10.0,NNW,5.8,-,N/A,,Overcast,330,2013-07-27 07:34:00
2:54 AM,53.6,46.4,77,30.07,10.0,North,3.5,-,N/A,,Overcast,10,2013-07-27 07:54:00
3:14 AM,51.8,46.4,82,30.07,10.0,NNE,4.6,-,N/A,,Mostly Cloudy,30,2013-07-27 08:14:00
3:34 AM,51.8,46.4,82,30.07,10.0,North,3.5,-,N/A,,Mostly Cloudy,360,2013-07-27 08:34:00
3:54 AM,51.8,46.4,82,30.06,10.0,Calm,Calm,-,N/A,,Overcast,0,2013-07-27 08:54:00
4:14 AM,51.8,46.4,82,30.07,10.0,Calm,Calm,-,N/A,,Overcast,0,2013-07-27 09:14:00
4:34 AM,51.8,48.2,88,30.07,10.0,NW,3.5,-,N/A,,Overcast,310,2013-07-27 09:34:00
4:54 AM,51.8,50.0,94,30.07,10.0,NNW,3.5,-,N/A,Rain,Light Rain,330,2013-07-27 09:54:00
5:14 AM,51.8,50.0,94,30.07,10.0,NNW,5.8,-,N/A,Rain,Light Rain,340,2013-07-27 10:14:00
5:34 AM,50.0,48.2,94,30.07,10.0,WNW,3.5,-,N/A,,Mostly Cloudy,300,2013-07-27 10:34:00
5:54 AM,50.0,48.2,94,30.08,10.0,WNW,6.9,-,N/A,,Scattered Clouds,290,2013-07-27 10:54:00
6:14 AM,48.2,48.2,100,30.08,10.0,WNW,6.9,-,N/A,,Scattered Clouds,290,2013-07-27 11:14:00
6:34 AM,48.2,48.2,100,30.08,10.0,WNW,6.9,-,N/A,,Scattered Clouds,290,2013-07-27 11:34:00
6:54 AM,50.0,48.2,94,30.07,10.0,WNW,8.1,-,N/A,,Mostly Cloudy,290,2013-07-27 11:54:00
7:14 AM,51.8,48.2,88,30.07,10.0,NW,9.2,-,N/A,,Overcast,310,2013-07-27 12:14:00
7:34 AM,51.8,48.2,88,30.08,10.0,NW,11.5,-,N/A,,Overcast,310,2013-07-27 12:34:00
7:54 AM,51.8,48.2,88,30.07,10.0,WNW,5.8,-,N/A,,Overcast,300,2013-07-27 12:54:00
8:14 AM,53.6,48.2,82,30.07,10.0,NW,9.2,-,N/A,,Overcast,310,2013-07-27 13:14:00
8:34 AM,53.6,48.2,82,30.07,10.0,WNW,9.2,-,N/A,,Mostly Cloudy,300,2013-07-27 13:34:00
8:54 AM,55.4,48.2,77,30.07,10.0,NW,13.8,20.7,N/A,,Scattered Clouds,320,2013-07-27 13:54:00
9:14 AM,55.4,48.2,77,30.07,10.0,WNW,9.2,17.3,N/A,,Scattered Clouds,300,2013-07-27 14:14:00
9:33 AM,57.2,48.2,72,30.06,10.0,NW,11.5,17.3,N/A,,Scattered Clouds,310,2013-07-27 14:33:00
9:54 AM,57.2,46.4,67,30.05,10.0,WNW,12.7,19.6,N/A,,Scattered Clouds,300,2013-07-27 14:54:00
10:14 AM,57.2,48.2,72,30.05,10.0,WNW,12.7,19.6,N/A,,Scattered Clouds,290,2013-07-27 15:14:00
10:34 AM,57.2,46.4,67,30.04,10.0,NW,10.4,-,N/A,,Scattered Clouds,310,2013-07-27 15:34:00
10:54 AM,60.8,46.4,59,30.03,10.0,NW,15.0,20.7,N/A,,Scattered Clouds,320,2013-07-27 15:54:00
11:14 AM,60.8,48.2,63,30.02,10.0,WNW,15.0,20.7,N/A,,Scattered Clouds,290,2013-07-27 16:14:00
11:34 AM,62.6,46.4,55,30.02,10.0,NW,17.3,21.9,N/A,,Mostly Cloudy,310,2013-07-27 16:34:00
11:54 AM,62.6,46.4,55,30.01,10.0,West,18.4,25.3,N/A,,Scattered Clouds,280,2013-07-27 16:54:00
12:14 PM,64.4,46.4,52,30.01,10.0,WNW,17.3,24.2,N/A,,Scattered Clouds,290,2013-07-27 17:14:00
12:34 PM,60.8,46.4,59,30.02,10.0,NW,12.7,18.4,N/A,,Mostly Cloudy,320,2013-07-27 17:34:00
12:54 PM,55.4,48.2,77,30.02,10.0,NNW,13.8,17.3,N/A,,Overcast,340,2013-07-27 17:54:00
1:14 PM,57.2,48.2,72,30.02,10.0,NNW,13.8,19.6,N/A,,Overcast,330,2013-07-27 18:14:00
1:34 PM,60.8,48.2,63,30.02,10.0,NNW,9.2,18.4,N/A,,Mostly Cloudy,330,2013-07-27 18:34:00
1:54 PM,57.2,48.2,72,30.02,10.0,North,15.0,20.7,N/A,,Mostly Cloudy,350,2013-07-27 18:54:00
2:14 PM,59.0,48.2,67,30.02,10.0,NNW,11.5,20.7,N/A,,Overcast,330,2013-07-27 19:14:00
2:34 PM,57.2,46.4,67,30.02,10.0,NNW,6.9,11.5,N/A,,Overcast,330,2013-07-27 19:34:00
2:54 PM,59.0,46.4,63,30.01,10.0,NW,8.1,-,N/A,,Overcast,310,2013-07-27 19:54:00
3:13 PM,60.8,44.6,55,30.01,10.0,NW,12.7,-,N/A,,Overcast,320,2013-07-27 20:13:00
3:34 PM,62.6,46.4,55,30.00,10.0,NNW,11.5,-,N/A,,Scattered Clouds,330,2013-07-27 20:34:00
3:54 PM,60.8,44.6,55,29.99,10.0,NW,12.7,18.4,N/A,,Mostly Cloudy,310,2013-07-27 20:54:00
4:14 PM,60.8,46.4,59,29.99,10.0,NNW,8.1,-,N/A,,Overcast,340,2013-07-27 21:14:00
4:34 PM,59.0,48.2,67,29.99,10.0,North,5.8,-,N/A,,Overcast,350,2013-07-27 21:34:00
4:54 PM,57.2,46.4,67,29.99,10.0,North,5.8,-,N/A,,Overcast,350,2013-07-27 21:54:00
5:14 PM,60.8,48.2,63,29.99,10.0,NNW,4.6,-,N/A,,Mostly Cloudy,340,2013-07-27 22:14:00
5:34 PM,59.0,48.2,67,29.98,10.0,NNW,4.6,-,N/A,,Overcast,330,2013-07-27 22:34:00
5:54 PM,59.0,48.2,67,29.97,10.0,WSW,3.5,-,N/A,,Overcast,250,2013-07-27 22:54:00
6:14 PM,59.0,50.0,72,29.96,10.0,SW,3.5,-,N/A,,Overcast,220,2013-07-27 23:14:00
6:34 PM,59.0,50.0,72,29.96,10.0,SSW,4.6,-,N/A,,Overcast,210,2013-07-27 23:34:00
6:54 PM,57.2,51.8,82,29.96,10.0,SW,3.5,-,N/A,,Overcast,220,2013-07-27 23:54:00
7:14 PM,57.2,51.8,82,29.96,10.0,WSW,3.5,-,N/A,,Overcast,250,2013-07-28 00:14:00
7:34 PM,57.2,50.0,77,29.96,10.0,NW,9.2,-,N/A,Rain,Light Rain,310,2013-07-28 00:34:00
7:54 PM,57.2,51.8,82,29.96,10.0,WNW,4.6,-,N/A,,Overcast,300,2013-07-28 00:54:00
8:13 PM,57.2,51.8,82,29.96,10.0,WNW,4.6,-,N/A,,Light Drizzle,290,2013-07-28 01:13:00
8:34 PM,55.4,53.6,94,29.96,10.0,West,5.8,-,N/A,,Light Drizzle,270,2013-07-28 01:34:00
8:54 PM,57.2,51.8,82,29.96,10.0,WNW,8.1,-,N/A,,Light Drizzle,290,2013-07-28 01:54:00
9:14 PM,57.2,51.8,82,29.96,10.0,WNW,6.9,-,N/A,Rain,Light Rain,290,2013-07-28 02:14:00
9:34 PM,55.4,51.8,88,29.96,10.0,West,5.8,-,N/A,,Overcast,280,2013-07-28 02:34:00
9:54 PM,55.4,51.8,88,29.96,10.0,West,3.5,-,N/A,,Overcast,280,2013-07-28 02:54:00
10:14 PM,55.4,51.8,88,29.96,10.0,NW,5.8,-,N/A,,Overcast,310,2013-07-28 03:14:00
10:34 PM,55.4,51.8,88,29.97,10.0,North,5.8,-,N/A,,Overcast,350,2013-07-28 03:34:00
10:54 PM,55.4,51.8,88,29.98,10.0,North,5.8,-,N/A,,Overcast,360,2013-07-28 03:54:00
11:14 PM,55.4,51.8,88,29.98,10.0,North,6.9,-,N/A,,Overcast,350,2013-07-28 04:14:00
11:34 PM,55.4,48.2,77,29.97,10.0,North,9.2,16.1,N/A,,Overcast,350,2013-07-28 04:34:00
11:54 PM,55.4,48.2,77,29.98,10.0,NNW,10.4,-,N/A,,Overcast,340,2013-07-28 04:54:00